Time;durP1;ratioP1;P1;durP2;ratioP2;P2;SDS_P1;SDS_P2;PMS_P1;PMS_P2;Temp;Humidity;BMP_temperature;BMP_pressure;BME280_temperature;BME280_humidity;BME280_pressure;Samples;Min_cycle;Max_cycle;Signal;HPM_P1;HPM_P2
2023/09/21 00:00:11;;;;;;;8.73;2.88;;;;;;;16.03;73.05;97814.28;5005958;28;20033;-83
2023/09/21 00:02:36;;;;;;;8.35;2.65;;;;;;;15.94;72.90;97805.41;5000879;28;20658;-84
2023/09/21 00:05:02;;;;;;;4.03;2.80;;;;;;;15.97;73.16;97806.66;4969342;28;20026;-85
2023/09/21 00:07:29;;;;;;;5.80;2.80;;;;;;;15.83;73.79;97793.31;4986778;28;20059;-84
2023/09/21 00:09:54;;;;;;;9.40;3.00;;;;;;;16.04;73.64;97817.78;5003675;28;20124;-84
2023/09/21 00:12:19;;;;;;;5.63;2.83;;;;;;;15.91;73.18;97799.81;5006575;28;20048;-84
2023/09/21 00:14:45;;;;;;;5.03;3.15;;;;;;;16.07;73.27;97809.91;5008950;28;20055;-84
2023/09/21 00:17:11;;;;;;;6.32;3.20;;;;;;;16.01;73.41;97802.28;5005574;28;20069;-84
2023/09/21 00:19:36;;;;;;;2.95;2.60;;;;;;;15.79;73.85;97781.56;5003432;28;20030;-84
2023/09/21 00:22:04;;;;;;;4.60;3.03;;;;;;;15.82;73.83;97786.31;5014706;28;20524;-84
2023/09/21 00:24:30;;;;;;;5.15;2.92;;;;;;;15.85;73.73;97772.25;4989413;28;20040;-84
2023/09/21 00:26:56;;;;;;;4.00;3.58;;;;;;;15.96;73.69;97789.75;4978846;28;20049;-84
2023/09/21 00:29:22;;;;;;;3.13;2.83;;;;;;;15.96;73.85;97784.34;4989736;28;20037;-85
2023/09/21 00:31:48;;;;;;;4.93;2.80;;;;;;;15.82;73.68;97778.25;5011625;28;20043;-84
2023/09/21 00:34:13;;;;;;;8.00;3.30;;;;;;;15.92;74.09;97790.66;5007731;28;20026;-85
2023/09/21 00:36:42;;;;;;;3.80;2.90;;;;;;;15.85;73.73;97785.72;4992237;28;20030;-85
2023/09/21 00:39:11;;;;;;;5.30;3.03;;;;;;;15.79;73.74;97773.50;5000401;28;20033;-84
2023/09/21 00:41:36;;;;;;;5.65;3.28;;;;;;;15.81;72.89;97768.59;4987187;28;20038;-84
2023/09/21 00:44:09;;;;;;;3.65;2.60;;;;;;;15.81;73.42;97787.44;4984044;28;20530;-84
2023/09/21 00:46:36;;;;;;;3.97;2.90;;;;;;;15.77;73.46;97782.97;5002766;28;20033;-84
2023/09/21 00:49:04;;;;;;;4.93;2.92;;;;;;;15.73;73.12;97785.47;5003998;28;20046;-84
2023/09/21 00:51:32;;;;;;;9.70;3.65;;;;;;;15.64;73.04;97760.41;5006429;28;20025;-84
2023/09/21 00:54:00;;;;;;;3.97;3.33;;;;;;;15.70;73.69;97770.72;4984778;28;20069;-84
2023/09/21 00:56:27;;;;;;;4.82;2.85;;;;;;;15.71;73.33;97776.91;5003873;28;20069;-84
2023/09/21 00:58:53;;;;;;;4.35;2.65;;;;;;;15.51;73.40;97758.59;4997491;28;20121;-84
2023/09/21 01:01:28;;;;;;;7.70;3.17;;;;;;;15.64;73.66;97771.16;4983928;28;20132;-84
2023/09/21 01:03:54;;;;;;;6.90;2.90;;;;;;;15.45;73.45;97738.28;4987116;28;20030;-85
2023/09/21 01:06:20;;;;;;;7.18;3.33;;;;;;;15.59;73.31;97763.25;5006081;28;20034;-84
2023/09/21 01:08:46;;;;;;;3.65;2.90;;;;;;;15.56;73.94;97758.47;4987862;28;20057;-84
2023/09/21 01:11:13;;;;;;;3.88;3.40;;;;;;;15.59;73.15;97750.59;5008247;28;20030;-84
2023/09/21 01:13:39;;;;;;;5.18;3.30;;;;;;;15.52;73.61;97738.66;4998676;28;20026;-84
2023/09/21 01:16:06;;;;;;;7.25;3.38;;;;;;;15.56;73.65;97758.47;5006909;28;20100;-85
2023/09/21 01:18:32;;;;;;;3.78;2.90;;;;;;;15.46;73.42;97747.97;5003171;28;20026;-85
2023/09/21 01:21:04;;;;;;;6.38;3.45;;;;;;;15.44;74.15;97734.03;5003834;28;20026;-84
2023/09/21 01:23:37;;;;;;;6.30;3.40;;;;;;;15.57;73.49;97760.06;4986600;28;20064;-83
2023/09/21 01:26:02;;;;;;;5.00;3.63;;;;;;;15.53;73.65;97748.34;5003884;28;20054;-85
2023/09/21 01:28:29;;;;;;;5.57;3.22;;;;;;;15.55;73.39;97759.59;5001840;28;20098;-84
2023/09/21 01:30:58;;;;;;;6.43;3.13;;;;;;;15.56;73.49;97766.53;4985971;28;20034;-85
2023/09/21 01:33:23;;;;;;;6.82;3.58;;;;;;;15.47;73.96;97747.66;5003688;28;20088;-84
2023/09/21 01:35:49;;;;;;;5.50;4.05;;;;;;;15.49;73.16;97761.59;4987509;28;20676;-84
2023/09/21 01:38:15;;;;;;;7.40;3.25;;;;;;;15.39;73.80;97739.50;5007636;28;20029;-84
2023/09/21 01:40:41;;;;;;;5.50;3.22;;;;;;;15.42;73.83;97749.66;4989310;28;20061;-84
2023/09/21 01:43:09;;;;;;;4.18;2.75;;;;;;;15.42;74.09;97747.72;5008205;28;20081;-84
2023/09/21 01:45:37;;;;;;;3.97;3.53;;;;;;;15.41;73.99;97756.91;5005770;28;20034;-84
2023/09/21 01:48:10;;;;;;;4.70;3.28;;;;;;;15.37;73.91;97745.19;4997150;28;20137;-84
2023/09/21 01:50:48;;;;;;;6.43;3.20;;;;;;;15.35;73.85;97727.78;5001524;28;20029;-85
2023/09/21 01:53:15;;;;;;;5.05;3.10;;;;;;;15.41;73.93;97745.38;4993988;28;20042;-84
2023/09/21 01:55:41;;;;;;;4.70;3.78;;;;;;;15.33;74.00;97735.34;5008937;28;20034;-85
2023/09/21 01:58:11;;;;;;;4.35;3.60;;;;;;;15.37;73.74;97737.13;5008504;28;20034;-84
2023/09/21 02:00:41;;;;;;;4.55;3.35;;;;;;;15.27;74.16;97723.91;5010947;28;20049;-84
2023/09/21 02:03:12;;;;;;;3.60;3.15;;;;;;;15.37;74.10;97730.94;5008974;28;20117;-84
2023/09/21 02:05:42;;;;;;;5.47;3.78;;;;;;;15.25;74.22;97728.81;5005897;28;20132;-84
2023/09/21 02:08:09;;;;;;;5.13;3.42;;;;;;;15.32;74.19;97728.38;5021156;28;20080;-84
2023/09/21 02:10:36;;;;;;;4.20;3.10;;;;;;;15.29;73.96;97716.31;5005768;28;20088;-84
2023/09/21 02:13:06;;;;;;;4.68;3.70;;;;;;;15.37;74.15;97718.31;5009090;28;20044;-84
2023/09/21 02:15:39;;;;;;;4.63;3.53;;;;;;;15.17;73.96;97685.72;4989073;28;20037;-84
2023/09/21 02:18:09;;;;;;;7.22;3.75;;;;;;;15.40;74.27;97716.88;5004539;28;20045;-84
2023/09/21 02:20:36;;;;;;;7.03;3.80;;;;;;;15.34;73.84;97716.22;5002256;28;20053;-84
2023/09/21 02:23:02;;;;;;;6.13;3.13;;;;;;;15.32;74.32;97714.94;4984736;28;20092;-84
2023/09/21 02:25:35;;;;;;;4.53;3.28;;;;;;;15.33;73.77;97705.78;5006550;28;20528;-84
2023/09/21 02:28:09;;;;;;;4.32;3.20;;;;;;;15.39;74.12;97707.22;4972844;28;20034;-84
2023/09/21 02:30:39;;;;;;;4.22;3.25;;;;;;;15.35;73.61;97709.75;5005309;28;20033;-84
2023/09/21 02:33:06;;;;;;;6.00;3.35;;;;;;;15.34;73.30;97704.66;5006137;28;20026;-84
2023/09/21 02:35:33;;;;;;;4.68;3.58;;;;;;;15.24;73.98;97691.47;4989445;28;20034;-84
2023/09/21 02:38:00;;;;;;;4.85;3.35;;;;;;;15.26;73.97;97700.03;5005715;28;20042;-85
2023/09/21 02:40:25;;;;;;;8.38;3.30;;;;;;;15.23;73.95;97698.75;5008257;28;20040;-84
2023/09/21 02:42:52;;;;;;;7.32;3.70;;;;;;;15.20;74.39;97696.66;4987200;28;20026;-84
2023/09/21 02:45:25;;;;;;;4.30;3.55;;;;;;;15.19;74.08;97688.91;5007547;28;20438;-83
2023/09/21 02:47:54;;;;;;;6.10;4.10;;;;;;;15.21;74.21;97700.94;5007968;28;20551;-84
2023/09/21 02:50:25;;;;;;;3.47;3.05;;;;;;;15.13;74.19;97684.75;5004316;28;20056;-83
2023/09/21 02:52:55;;;;;;;7.63;3.60;;;;;;;14.98;74.27;97664.44;5007066;28;20080;-83
2023/09/21 02:55:28;;;;;;;10.63;4.20;;;;;;;15.04;74.45;97673.94;5005232;28;20524;-84
2023/09/21 02:57:58;;;;;;;6.25;3.80;;;;;;;15.12;74.41;97678.59;5007509;28;20058;-85
2023/09/21 03:00:34;;;;;;;5.32;3.92;;;;;;;15.13;74.57;97685.56;5008458;28;20521;-84
2023/09/21 03:03:04;;;;;;;5.78;3.67;;;;;;;15.14;74.39;97678.28;5004856;28;20088;-84
2023/09/21 03:05:30;;;;;;;4.80;3.13;;;;;;;15.10;74.21;97663.84;4991537;28;20030;-83
2023/09/21 03:07:55;;;;;;;4.15;3.67;;;;;;;15.06;74.52;97670.94;4984566;28;20037;-84
2023/09/21 03:10:25;;;;;;;8.00;3.90;;;;;;;15.10;74.55;97659.28;5004833;28;20038;-83
2023/09/21 03:12:52;;;;;;;5.35;3.70;;;;;;;15.12;74.78;97675.09;5022066;28;20374;-84
2023/09/21 03:15:22;;;;;;;4.78;3.88;;;;;;;15.07;74.44;97659.13;5008644;28;20037;-84
2023/09/21 03:17:52;;;;;;;7.47;4.50;;;;;;;15.08;74.30;97677.63;4986883;28;20034;-84
2023/09/21 03:20:28;;;;;;;5.35;3.42;;;;;;;15.03;74.79;97662.41;5005329;28;20033;-84
2023/09/21 03:22:54;;;;;;;4.72;3.30;;;;;;;15.07;74.43;97661.81;5004583;28;20128;-84
2023/09/21 03:25:28;;;;;;;4.88;3.55;;;;;;;15.10;74.47;97671.91;4988028;28;20022;-84
2023/09/21 03:27:56;;;;;;;5.20;3.83;;;;;;;14.98;74.12;97651.75;5000741;28;23474;-84
2023/09/21 03:30:26;;;;;;;7.78;3.92;;;;;;;14.98;74.75;97653.69;4986506;28;20069;-83
2023/09/21 03:32:52;;;;;;;4.93;3.65;;;;;;;15.00;74.66;97659.53;5021242;28;20085;-83
2023/09/21 03:35:20;;;;;;;4.88;3.65;;;;;;;15.01;74.66;97659.22;5005661;28;20160;-83
2023/09/21 03:37:50;;;;;;;7.82;4.38;;;;;;;15.12;74.46;97658.97;5004744;28;20037;-84
2023/09/21 03:40:17;;;;;;;12.88;3.70;;;;;;;15.13;74.32;97664.06;5023488;28;20568;-83
2023/09/21 03:42:43;;;;;;;6.03;3.58;;;;;;;15.03;74.55;97648.97;5023923;28;20033;-84
2023/09/21 03:45:10;;;;;;;6.00;3.72;;;;;;;14.89;74.42;97624.06;5009918;28;20030;-84
2023/09/21 03:47:36;;;;;;;5.82;3.67;;;;;;;15.05;74.19;97645.19;4979067;28;20087;-84
2023/09/21 03:50:03;;;;;;;9.25;4.25;;;;;;;14.88;74.43;97627.84;4989638;28;20693;-84
2023/09/21 03:52:28;;;;;;;9.00;4.43;;;;;;;14.85;74.52;97633.81;5006125;28;20056;-83
2023/09/21 03:54:55;;;;;;;5.55;3.67;;;;;;;14.98;74.19;97634.88;4994418;28;20025;-83
2023/09/21 03:57:20;;;;;;;7.50;3.95;;;;;;;14.95;74.16;97619.34;5005609;28;20381;-83
2023/09/21 03:59:48;;;;;;;6.95;3.90;;;;;;;14.94;74.59;97633.88;5011680;28;20108;-84
2023/09/21 04:02:14;;;;;;;4.75;3.72;;;;;;;14.92;74.52;97625.31;4992306;28;20038;-84
2023/09/21 04:04:41;;;;;;;5.50;4.35;;;;;;;15.00;74.56;97644.19;4976830;28;20041;-84
2023/09/21 04:07:07;;;;;;;4.15;3.75;;;;;;;14.95;74.92;97625.53;5004540;28;20152;-84
2023/09/21 04:09:34;;;;;;;6.80;3.95;;;;;;;14.99;74.96;97641.81;5003362;28;20092;-85
2023/09/21 04:12:00;;;;;;;4.78;3.60;;;;;;;14.92;74.98;97614.56;5003483;28;20031;-85
2023/09/21 04:14:27;;;;;;;5.57;3.65;;;;;;;14.95;74.87;97625.53;4993024;28;20988;-84
2023/09/21 04:16:52;;;;;;;5.20;3.58;;;;;;;14.86;75.18;97616.59;4999895;28;20179;-85
2023/09/21 04:19:18;;;;;;;4.70;3.38;;;;;;;14.93;74.79;97616.97;5001338;28;20037;-84
2023/09/21 04:21:44;;;;;;;4.20;3.25;;;;;;;14.86;74.81;97599.69;5001790;28;20025;-86
2023/09/21 04:24:09;;;;;;;4.55;3.60;;;;;;;14.91;75.47;97619.19;5006160;28;20045;-87
2023/09/21 04:26:35;;;;;;;7.38;3.65;;;;;;;14.88;75.04;97619.78;4989232;28;20096;-86
2023/09/21 04:29:00;;;;;;;4.55;3.47;;;;;;;14.79;75.54;97607.38;5001857;28;20041;-83
2023/09/21 04:31:25;;;;;;;6.05;3.95;;;;;;;14.69;75.37;97594.19;4969805;28;20029;-86
2023/09/21 04:33:51;;;;;;;6.40;4.13;;;;;;;14.90;75.63;97617.56;4969889;28;20458;-86
2023/09/21 04:36:16;;;;;;;5.78;3.63;;;;;;;14.88;75.43;97622.47;4987741;28;20533;-86
2023/09/21 04:38:42;;;;;;;5.38;3.72;;;;;;;14.84;75.22;97623.38;5019267;28;20053;-86
2023/09/21 04:41:14;;;;;;;6.22;3.40;;;;;;;14.89;75.39;97618.69;4972642;28;20038;-86
2023/09/21 04:43:40;;;;;;;4.47;3.45;;;;;;;14.63;75.71;97585.50;5007650;28;20017;-86
2023/09/21 04:46:06;;;;;;;7.30;3.92;;;;;;;14.85;75.79;97612.31;4968228;28;20032;-86
2023/09/21 04:48:33;;;;;;;5.20;4.03;;;;;;;14.84;75.41;97624.19;4984175;28;20121;-86
2023/09/21 04:50:59;;;;;;;5.60;4.10;;;;;;;14.82;75.67;97612.94;5002844;28;20526;-86
2023/09/21 04:53:24;;;;;;;4.28;3.40;;;;;;;14.78;75.77;97597.75;4985709;28;20038;-85
2023/09/21 04:55:49;;;;;;;5.68;3.78;;;;;;;14.78;76.29;97598.56;4977024;28;20060;-85
2023/09/21 04:58:16;;;;;;;5.25;3.97;;;;;;;14.77;75.90;97601.50;4993490;28;20061;-84
2023/09/21 05:00:42;;;;;;;6.90;4.20;;;;;;;14.85;75.79;97609.63;5006605;28;20056;-84
2023/09/21 05:03:09;;;;;;;5.75;3.58;;;;;;;14.79;75.60;97608.19;4988632;28;20061;-85
2023/09/21 05:05:35;;;;;;;5.55;3.92;;;;;;;14.63;76.05;97596.22;4996158;28;20030;-84
2023/09/21 05:08:03;;;;;;;4.60;3.47;;;;;;;14.75;76.51;97609.88;4996990;28;20038;-85
2023/09/21 05:10:29;;;;;;;4.55;3.63;;;;;;;14.82;76.03;97607.56;4974296;28;20034;-84
2023/09/21 05:12:55;;;;;;;4.03;3.42;;;;;;;14.77;75.90;97596.94;4992751;28;20034;-85
2023/09/21 05:15:22;;;;;;;6.07;3.60;;;;;;;14.86;75.66;97584.38;5010474;28;20098;-84
2023/09/21 05:17:47;;;;;;;4.03;3.30;;;;;;;14.86;75.75;97595.13;5007686;28;20057;-84
2023/09/21 05:20:12;;;;;;;5.32;3.47;;;;;;;14.75;75.99;97579.53;4993153;28;21737;-84
2023/09/21 05:22:41;;;;;;;4.20;3.50;;;;;;;14.86;76.41;97588.94;4996149;28;20113;-84
2023/09/21 05:25:10;;;;;;;13.05;4.07;;;;;;;14.77;76.09;97582.72;5011207;28;20034;-84
2023/09/21 05:27:41;;;;;;;5.93;3.72;;;;;;;14.88;76.11;97600.97;4993303;28;20064;-85
2023/09/21 05:30:09;;;;;;;5.95;3.80;;;;;;;14.68;76.49;97571.13;5008891;28;20042;-84
2023/09/21 05:32:35;;;;;;;5.13;3.90;;;;;;;14.82;76.11;97594.16;5001284;28;20038;-85
2023/09/21 05:35:01;;;;;;;4.13;2.97;;;;;;;14.92;76.42;97607.31;5013728;28;20091;-84
2023/09/21 05:37:26;;;;;;;7.00;3.50;;;;;;;14.92;75.81;97599.25;4999550;28;20037;-84
2023/09/21 05:39:52;;;;;;;4.70;3.85;;;;;;;14.84;76.13;97597.31;5017730;28;20030;-84
2023/09/21 05:42:18;;;;;;;4.93;3.60;;;;;;;14.89;75.68;97591.81;5000203;28;20034;-84
2023/09/21 05:44:44;;;;;;;6.25;3.28;;;;;;;14.89;76.11;97591.03;4997150;28;20026;-84
2023/09/21 05:47:10;;;;;;;3.80;2.90;;;;;;;14.88;76.16;97587.53;4999187;28;20104;-85
2023/09/21 05:49:36;;;;;;;4.13;3.20;;;;;;;14.89;76.36;97597.19;5000694;28;20034;-85
2023/09/21 05:52:03;;;;;;;5.88;3.50;;;;;;;14.93;76.31;97595.47;4991781;28;20034;-85
2023/09/21 05:54:29;;;;;;;5.60;3.33;;;;;;;14.93;76.45;97582.06;5020061;28;20029;-85
2023/09/21 05:56:55;;;;;;;3.78;3.03;;;;;;;14.96;76.37;97589.47;5017225;28;20093;-84
2023/09/21 05:59:24;;;;;;;5.18;3.80;;;;;;;14.97;76.02;97580.34;5016187;28;20093;-85
2023/09/21 06:01:50;;;;;;;4.28;3.20;;;;;;;15.01;76.60;97602.00;5013953;28;20052;-85
2023/09/21 06:04:21;;;;;;;8.60;3.83;;;;;;;14.93;76.82;97582.06;4996155;28;20061;-85
2023/09/21 06:06:47;;;;;;;7.65;3.88;;;;;;;14.99;76.50;97604.19;4987599;28;20483;-85
2023/09/21 06:09:18;;;;;;;7.18;3.75;;;;;;;14.81;76.92;97560.31;4997075;28;20129;-85
2023/09/21 06:11:48;;;;;;;3.78;3.40;;;;;;;14.92;77.08;97572.38;4973088;28;20029;-85
2023/09/21 06:14:14;;;;;;;5.78;3.60;;;;;;;14.93;77.12;97574.00;5010640;28;20026;-85
2023/09/21 06:16:40;;;;;;;5.20;3.40;;;;;;;14.96;77.14;97586.03;5008529;28;20030;-85
2023/09/21 06:19:07;;;;;;;5.07;3.95;;;;;;;14.96;77.36;97584.09;5010034;28;20037;-84
2023/09/21 06:21:35;;;;;;;3.58;3.25;;;;;;;14.96;77.03;97588.72;5011616;28;20066;-84
2023/09/21 06:24:03;;;;;;;5.13;3.58;;;;;;;14.93;77.44;97579.38;5014074;28;20029;-84
2023/09/21 06:26:29;;;;;;;4.97;3.35;;;;;;;15.05;77.19;97594.13;5015071;28;20085;-84
2023/09/21 06:28:54;;;;;;;3.83;3.10;;;;;;;14.96;76.96;97570.66;4993271;28;20148;-83
2023/09/21 06:31:21;;;;;;;5.38;3.83;;;;;;;15.04;77.34;97571.84;5006414;28;20037;-84
2023/09/21 06:33:48;;;;;;;4.57;3.60;;;;;;;14.84;77.22;97577.72;4993802;28;20109;-84
2023/09/21 06:36:20;;;;;;;4.68;3.67;;;;;;;15.03;77.14;97587.16;5000646;28;20040;-84
2023/09/21 06:38:50;;;;;;;4.50;3.72;;;;;;;14.95;77.30;97577.16;5014457;28;20030;-84
2023/09/21 06:41:16;;;;;;;4.53;3.33;;;;;;;14.97;77.44;97588.41;5014720;28;20021;-84
2023/09/21 06:43:44;;;;;;;4.15;3.38;;;;;;;15.01;77.15;97578.63;5013452;28;20022;-84
2023/09/21 06:46:13;;;;;;;4.68;3.53;;;;;;;14.95;78.61;97574.47;4981234;28;20440;-84
2023/09/21 06:48:41;;;;;;;3.42;3.13;;;;;;;15.06;78.39;97572.31;5013522;28;20242;-84
2023/09/21 06:51:09;;;;;;;3.47;3.00;;;;;;;15.11;77.83;97574.09;5012823;28;20486;-84
2023/09/21 06:53:36;;;;;;;7.93;3.65;;;;;;;15.13;78.83;97571.88;5013295;28;20040;-84
2023/09/21 06:56:01;;;;;;;5.55;3.42;;;;;;;15.16;79.94;97577.41;5013222;28;20065;-84
2023/09/21 06:58:28;;;;;;;7.35;3.30;;;;;;;15.36;79.49;97581.47;4996497;28;20115;-84
2023/09/21 07:00:54;;;;;;;5.10;3.40;;;;;;;15.39;78.27;97570.09;4992874;28;20034;-84
2023/09/21 07:03:19;;;;;;;8.10;3.85;;;;;;;15.39;80.29;97575.47;4993205;28;20041;-84
2023/09/21 07:05:48;;;;;;;4.05;3.13;;;;;;;15.64;77.58;97582.88;5007448;28;20045;-84
2023/09/21 07:08:14;;;;;;;4.63;3.35;;;;;;;15.59;77.62;97578.44;5009521;28;20049;-84
2023/09/21 07:10:40;;;;;;;4.03;3.42;;;;;;;15.67;77.36;97569.59;4993180;28;20022;-84
2023/09/21 07:13:06;;;;;;;6.10;3.45;;;;;;;15.79;78.69;97582.47;4995696;28;20100;-84
2023/09/21 07:15:33;;;;;;;9.10;3.53;;;;;;;15.79;79.48;97577.09;5009994;28;20033;-84
2023/09/21 07:17:58;;;;;;;4.40;3.10;;;;;;;15.79;78.02;97560.94;5002460;28;20065;-84
2023/09/21 07:20:26;;;;;;;4.25;3.30;;;;;;;15.90;79.86;97575.66;5010475;28;20516;-84
2023/09/21 07:22:55;;;;;;;3.55;3.10;;;;;;;16.01;78.65;97571.56;5008891;28;20060;-84
2023/09/21 07:25:22;;;;;;;5.07;3.15;;;;;;;16.10;77.58;97577.75;5006460;28;20470;-84
2023/09/21 07:27:48;;;;;;;4.10;3.15;;;;;;;16.25;77.68;97576.53;4992686;28;20034;-84
2023/09/21 07:30:14;;;;;;;4.85;3.55;;;;;;;16.34;79.82;97586.19;4976228;28;20056;-84
2023/09/21 07:32:40;;;;;;;5.25;3.38;;;;;;;16.39;78.97;97577.94;4992586;28;20099;-84
2023/09/21 07:35:06;;;;;;;3.53;3.00;;;;;;;16.34;79.00;97550.38;5001563;28;20116;-85
2023/09/21 07:37:32;;;;;;;4.53;3.03;;;;;;;16.61;77.00;97568.94;5012086;28;20029;-84
2023/09/21 07:39:58;;;;;;;5.85;3.40;;;;;;;16.72;77.76;97572.09;5010579;28;20505;-84
2023/09/21 07:42:23;;;;;;;4.28;2.85;;;;;;;16.73;77.05;97568.31;5012054;28;20053;-84
2023/09/21 07:44:49;;;;;;;7.53;3.58;;;;;;;16.75;76.33;97553.41;4989418;28;20022;-84
2023/09/21 07:47:15;;;;;;;3.97;3.58;;;;;;;16.75;76.54;97542.63;4979438;28;20559;-84
2023/09/21 07:49:40;;;;;;;5.90;3.00;;;;;;;16.94;77.37;97561.94;4994728;28;20104;-83
2023/09/21 07:52:07;;;;;;;4.13;3.05;;;;;;;16.95;76.52;97552.72;5011743;28;20407;-84
2023/09/21 07:54:33;;;;;;;4.10;3.05;;;;;;;16.99;76.60;97559.03;4994817;28;20057;-85
2023/09/21 07:56:59;;;;;;;3.72;3.22;;;;;;;17.02;76.72;97557.63;5009738;28;20504;-84
2023/09/21 07:59:25;;;;;;;3.20;2.90;;;;;;;17.03;75.29;97548.44;5012078;28;20128;-84
2023/09/21 08:01:51;;;;;;;3.17;2.67;;;;;;;17.03;76.43;97553.81;4998012;28;20120;-84
2023/09/21 08:04:17;;;;;;;3.83;3.05;;;;;;;16.84;75.42;97523.75;4994350;28;20445;-84
2023/09/21 08:06:43;;;;;;;5.45;2.90;;;;;;;17.05;75.52;97528.13;5009537;28;20032;-84
2023/09/21 08:09:08;;;;;;;5.47;2.92;;;;;;;17.18;75.91;97545.19;4994847;28;20026;-84
2023/09/21 08:11:34;;;;;;;3.20;2.70;;;;;;;17.16;75.52;97547.44;4994797;28;20165;-84
2023/09/21 08:13:59;;;;;;;3.88;3.58;;;;;;;17.10;76.52;97535.25;5011334;28;20120;-84
2023/09/21 08:16:26;;;;;;;2.70;2.50;;;;;;;17.26;76.42;97544.38;5010241;28;20052;-84
2023/09/21 08:18:53;;;;;;;5.03;3.83;;;;;;;17.24;77.36;97549.31;4997057;28;20408;-84
2023/09/21 08:21:18;;;;;;;4.25;3.42;;;;;;;17.23;77.32;97534.25;4991782;28;20034;-84
2023/09/21 08:23:46;;;;;;;4.72;3.20;;;;;;;17.25;76.81;97527.41;4959373;28;20022;-84
2023/09/21 08:26:13;;;;;;;3.83;3.08;;;;;;;17.45;76.41;97535.91;4999719;28;20537;-83
2023/09/21 08:28:39;;;;;;;2.83;2.60;;;;;;;17.41;75.96;97527.66;5010210;28;20056;-84
2023/09/21 08:31:04;;;;;;;4.38;3.33;;;;;;;17.36;76.82;97519.75;5008654;28;20054;-84
2023/09/21 08:33:30;;;;;;;5.38;3.55;;;;;;;17.48;75.40;97525.25;5008320;28;20038;-84
2023/09/21 08:35:55;;;;;;;3.50;3.20;;;;;;;17.62;75.34;97542.03;4985365;28;20720;-84
2023/09/21 08:38:21;;;;;;;4.72;3.15;;;;;;;17.61;74.67;97540.44;5009556;28;20042;-84
2023/09/21 08:40:52;;;;;;;4.63;3.03;;;;;;;17.75;74.25;97545.63;5008414;28;20026;-85
2023/09/21 08:43:22;;;;;;;5.00;2.80;;;;;;;17.71;76.12;97526.56;5009323;28;20038;-85
2023/09/21 08:45:50;;;;;;;18.30;3.85;;;;;;;17.80;74.11;97523.84;5009829;28;20021;-84
2023/09/21 08:48:19;;;;;;;4.13;2.80;;;;;;;17.78;74.20;97515.25;5012297;28;20493;-85
2023/09/21 08:50:48;;;;;;;7.68;3.30;;;;;;;18.02;74.52;97550.50;5008202;28;20030;-84
2023/09/21 08:53:19;;;;;;;3.72;2.90;;;;;;;17.95;73.85;97540.22;5010831;28;20382;-84
2023/09/21 08:55:48;;;;;;;4.60;2.95;;;;;;;18.03;73.45;97533.22;5011094;28;20030;-84
2023/09/21 08:58:20;;;;;;;4.15;2.70;;;;;;;17.96;74.33;97533.72;5010956;28;20112;-84
2023/09/21 09:00:47;;;;;;;5.47;2.85;;;;;;;17.95;74.31;97521.34;5010891;28;20045;-84
2023/09/21 09:03:14;;;;;;;2.90;2.70;;;;;;;18.14;74.34;97542.50;5010481;28;20025;-84
2023/09/21 09:05:40;;;;;;;5.82;3.10;;;;;;;18.10;74.16;97522.69;5008445;28;20025;-84
2023/09/21 09:08:05;;;;;;;4.68;3.35;;;;;;;18.09;73.03;97512.97;5005346;28;20022;-84
2023/09/21 09:10:39;;;;;;;3.88;3.08;;;;;;;18.17;73.25;97509.44;4996796;28;20498;-85
2023/09/21 09:13:06;;;;;;;3.92;2.83;;;;;;;18.41;72.61;97533.84;5014854;28;20037;-84
2023/09/21 09:15:37;;;;;;;2.67;2.42;;;;;;;18.42;72.56;97526.53;5015085;28;20020;-85
2023/09/21 09:18:05;;;;;;;3.65;2.75;;;;;;;18.50;72.99;97520.31;5013913;28;20564;-84
2023/09/21 09:20:32;;;;;;;3.92;3.30;;;;;;;18.55;71.95;97512.00;5013429;28;20026;-85
2023/09/21 09:23:00;;;;;;;3.08;2.78;;;;;;;18.74;74.35;97509.56;5013451;28;20456;-85
2023/09/21 09:25:26;;;;;;;5.07;3.20;;;;;;;18.92;73.88;97523.69;5014485;28;20739;-84
2023/09/21 09:27:51;;;;;;;4.00;3.00;;;;;;;18.94;71.62;97526.84;5014587;28;20034;-84
2023/09/21 09:30:20;;;;;;;3.20;2.65;;;;;;;19.01;72.29;97529.81;5015587;28;20026;-84
2023/09/21 09:32:47;;;;;;;4.35;2.72;;;;;;;18.99;71.64;97508.53;5013341;28;20026;-84
2023/09/21 09:35:17;;;;;;;3.65;2.67;;;;;;;18.95;70.99;97499.50;5013865;28;20117;-85
2023/09/21 09:37:44;;;;;;;4.68;2.85;;;;;;;19.06;71.64;97516.09;5014371;28;20030;-84
2023/09/21 09:40:14;;;;;;;3.95;2.75;;;;;;;19.08;71.65;97503.00;5013691;28;20034;-85
2023/09/21 09:42:40;;;;;;;4.68;2.78;;;;;;;18.99;71.08;97502.31;5009039;28;20026;-85
2023/09/21 09:45:18;;;;;;;3.03;2.58;;;;;;;19.05;72.14;97504.47;4997757;28;20064;-84
2023/09/21 09:48:10;;;;;;;3.35;3.05;;;;;;;19.15;73.00;97508.66;5013995;28;20029;-85
2023/09/21 09:50:42;;;;;;;5.25;2.63;;;;;;;19.07;73.02;97487.91;5012742;28;20084;-84
2023/09/21 09:53:10;;;;;;;5.70;3.05;;;;;;;19.05;72.62;97504.47;5013657;28;20040;-85
2023/09/21 09:55:37;;;;;;;3.28;2.60;;;;;;;18.99;71.07;97484.19;4997230;28;20040;-84
2023/09/21 09:58:03;;;;;;;6.72;2.78;;;;;;;19.08;72.16;97495.69;5010580;28;20038;-84
2023/09/21 10:00:30;;;;;;;5.13;2.70;;;;;;;19.18;71.25;97487.13;4997051;28;20120;-85
2023/09/21 10:02:57;;;;;;;4.63;2.60;;;;;;;19.16;71.22;97486.69;5019933;28;20111;-84
2023/09/21 10:05:24;;;;;;;4.32;2.67;;;;;;;19.14;71.94;97488.13;5015073;28;20022;-85
2023/09/21 10:07:51;;;;;;;4.47;3.17;;;;;;;19.17;71.40;97499.09;5012759;28;20033;-84
2023/09/21 10:10:20;;;;;;;3.30;3.00;;;;;;;19.14;72.86;97480.03;5014785;28;20026;-85
2023/09/21 10:12:51;;;;;;;5.47;2.45;;;;;;;19.21;71.26;97483.75;5012314;28;20026;-85
2023/09/21 10:15:22;;;;;;;4.28;2.72;;;;;;;19.10;73.35;97476.41;4992820;28;20030;-85
2023/09/21 10:17:50;;;;;;;4.72;2.35;;;;;;;19.11;71.09;97465.25;4993833;28;20125;-85
2023/09/21 10:20:24;;;;;;;5.28;3.15;;;;;;;19.23;73.27;97475.28;5001911;28;20045;-85
2023/09/21 10:22:58;;;;;;;5.97;2.65;;;;;;;19.20;72.96;97457.81;4997029;28;20030;-85
2023/09/21 10:25:41;;;;;;;4.80;2.88;;;;;;;19.36;71.40;97476.91;5010950;28;20033;-85
2023/09/21 10:28:28;;;;;;;3.75;2.75;;;;;;;19.41;71.21;97474.78;5009441;28;20034;-85
2023/09/21 10:31:18;;;;;;;5.25;2.67;;;;;;;19.43;71.77;97463.59;5011610;28;20029;-85
2023/09/21 10:33:51;;;;;;;3.53;2.55;;;;;;;19.59;71.24;97469.13;5005934;28;20058;-85
2023/09/21 10:36:23;;;;;;;3.53;2.90;;;;;;;19.59;71.58;97444.75;5013173;28;20429;-84
2023/09/21 10:39:13;;;;;;;3.55;2.88;;;;;;;19.78;70.38;97455.78;4990219;28;20105;-85
2023/09/21 10:41:42;;;;;;;3.22;2.80;;;;;;;19.94;70.97;97456.66;5013113;28;20092;-85
2023/09/21 10:44:09;;;;;;;3.00;2.58;;;;;;;19.84;69.91;97440.88;5013971;28;20022;-84
2023/09/21 10:46:37;;;;;;;5.13;2.80;;;;;;;20.13;72.91;97443.25;5013779;28;20034;-84
2023/09/21 10:49:05;;;;;;;7.47;2.50;;;;;;;20.21;71.25;97433.44;5011076;28;20038;-85
2023/09/21 10:51:33;;;;;;;3.50;3.10;;;;;;;20.36;70.82;97430.78;5012560;28;20026;-85
2023/09/21 10:53:59;;;;;;;3.65;2.85;;;;;;;20.30;70.56;97415.91;4990503;28;20027;-85
2023/09/21 10:56:28;;;;;;;5.40;2.65;;;;;;;20.39;70.74;97411.13;5000797;28;20037;-85
2023/09/21 10:58:53;;;;;;;3.00;2.80;;;;;;;20.32;68.88;97412.84;5013740;28;20080;-85
2023/09/21 11:01:19;;;;;;;3.42;3.13;;;;;;;20.34;69.19;97435.75;5005625;28;20037;-85
2023/09/21 11:03:48;;;;;;;6.88;2.88;;;;;;;20.36;71.35;97419.13;4993159;28;20041;-85
2023/09/21 11:06:17;;;;;;;4.88;3.22;;;;;;;20.21;70.20;97399.00;5006426;28;20041;-85
2023/09/21 11:08:46;;;;;;;4.95;2.67;;;;;;;20.18;69.99;97419.41;5010787;28;20072;-85
2023/09/21 11:11:12;;;;;;;3.22;2.63;;;;;;;20.11;71.41;97415.72;5010338;28;20386;-85
2023/09/21 11:13:44;;;;;;;4.47;2.80;;;;;;;20.10;70.49;97419.56;4988518;28;20033;-85
2023/09/21 11:16:13;;;;;;;9.73;3.30;;;;;;;20.08;72.11;97416.41;5008738;28;20034;-85
2023/09/21 11:18:39;;;;;;;2.78;2.35;;;;;;;19.96;72.31;97425.38;5013238;28;20078;-85
2023/09/21 11:21:08;;;;;;;4.13;3.10;;;;;;;19.90;72.54;97410.50;5021026;28;20782;-85
2023/09/21 11:23:34;;;;;;;3.50;2.63;;;;;;;19.81;72.01;97401.72;5011727;28;20026;-85
2023/09/21 11:26:00;;;;;;;4.88;2.63;;;;;;;19.81;71.62;97412.53;5010244;28;20041;-85
2023/09/21 11:28:26;;;;;;;3.00;2.80;;;;;;;19.73;72.40;97409.97;4985115;28;20398;-85
2023/09/21 11:30:53;;;;;;;5.25;3.28;;;;;;;19.70;72.60;97410.69;5010322;28;20034;-85
2023/09/21 11:33:19;;;;;;;2.53;2.33;;;;;;;19.75;71.57;97423.97;4994584;28;20030;-85
2023/09/21 11:35:45;;;;;;;4.20;2.70;;;;;;;19.67;73.14;97412.16;5013106;28;20049;-85